Lily Dale, New York
Current Conditions -  °F | °C
As of 10:53 AM on Tuesday 21 Oct 2014 (Local Time) from KDKK Reporting Station
Overcast Overcast  
Wind Chill: 53°   Ceiling: 2100
Heat Index: 53°   Visibility: 10mi
Dew Point: 48°   Wind: 9mph
Humidity: 83%   Direction: 280°W
Pressure: 29.86"   Gusts: NA
Location:  42.35°N, 79.32°W
Report Text: KDKK 211453Z AUTO 28008KT 10SM SCT016 BKN021 OVC031 12/09 A2986 RMK AO2 SLP112 T01170089 51011
Loading
Personal Weather Stations






























Interactive Weather Map
Tropical Storm Tracking
New forecast layout! Learn more

10-Day Weather Forecast

Advertisements
Track Severe Weather on mobile